Terminal Aerodrome Forecast
Issued by NWS

Home | Current Version | Previous Version | Text Only | Print | Product List | Glossary On
Versions: 1 2 3 4 5 6 7 8 9 10 11 12 13 14 15 16 17 18 19
826
FTUS44 KTSA 221700
TAFBVO
TAF
KBVO 221726Z 2218/2318 14006KT P6SM -RA BKN035 OVC110
     FM230000 VRB03KT P6SM OVC050 PROB30 2308/2314 3SM -TSRA
      BKN035CB
     FM231400 VRB03KT 4SM -TSRA BR BKN035CB=

USA.gov is the U.S. government's official web portal to all federal, state and local government web resources and services.